Terminal Aerodrome Forecast
Issued by NWS Wilmington, NC

Home | Current Version | Previous Version | Text Only | Print | Product List | Glossary On
Versions: 1 2 3 4 5 6 7 8 9 10 11 12 13 14 15 16 17 18 19 20
000
FTUS42 KILM 301100
TAFLBT
TAF
KLBT 301120Z 3012/0112 VRB02KT 1/2SM FG SCT002
      TEMPO 3012/3014 2SM BR BKN003
     FM301400 03006KT P6SM SCT040
     FM302200 01003KT P6SM SKC=

USA.gov is the U.S. government's official web portal to all federal, state and local government web resources and services.